createdAt,value
2017-12-23T00:02:06.341Z,11.27
2017-12-23T00:04:33.997Z,23.80
2017-12-23T00:07:01.600Z,12.53
2017-12-23T00:09:29.225Z,13.27
2017-12-23T00:11:58.315Z,12.13
2017-12-23T00:14:27.424Z,12.43
2017-12-23T00:16:55.753Z,8.50
2017-12-23T00:19:23.426Z,11.70
2017-12-23T00:21:51.003Z,10.00
2017-12-23T00:24:19.477Z,14.03
2017-12-23T00:26:47.068Z,17.17
2017-12-23T00:29:14.691Z,13.43
2017-12-23T00:31:42.276Z,11.50
2017-12-23T00:34:10.648Z,9.90
2017-12-23T00:36:39.005Z,16.83
2017-12-23T00:39:06.611Z,29.03
2017-12-23T00:41:35.068Z,24.83
2017-12-23T00:44:03.443Z,23.77
2017-12-23T00:46:31.034Z,12.20
2017-12-23T00:48:59.489Z,19.40
2017-12-23T00:51:27.096Z,6.93
2017-12-23T00:53:54.728Z,13.00
2017-12-23T00:56:23.104Z,23.70
2017-12-23T00:58:51.475Z,13.10
2017-12-23T01:01:19.087Z,14.73
2017-12-23T01:03:46.673Z,15.20
2017-12-23T01:06:14.373Z,7.30
2017-12-23T01:08:42.728Z,10.73
2017-12-23T01:11:10.341Z,8.90
2017-12-23T01:13:37.923Z,9.00
2017-12-23T01:16:05.535Z,24.97
2017-12-23T01:18:33.195Z,23.20
2017-12-23T01:21:00.860Z,13.77
2017-12-23T01:23:28.457Z,12.93
2017-12-23T01:25:56.912Z,19.40
2017-12-23T01:28:24.500Z,20.97
2017-12-23T01:30:52.864Z,23.77
2017-12-23T01:33:21.338Z,15.47
2017-12-23T01:35:49.698Z,14.03
2017-12-23T01:38:17.316Z,18.43
2017-12-23T01:40:44.912Z,13.93
2017-12-23T01:43:12.536Z,24.97
2017-12-23T01:45:40.137Z,14.43
2017-12-23T01:48:07.752Z,16.73
2017-12-23T01:50:36.203Z,18.70
2017-12-23T01:53:04.682Z,13.90
2017-12-23T01:55:33.077Z,18.13
2017-12-23T01:58:01.492Z,23.00
2017-12-23T02:00:29.832Z,30.07
2017-12-23T02:02:58.208Z,17.83
2017-12-23T02:05:25.805Z,23.27
2017-12-23T02:07:53.448Z,16.93
2017-12-23T02:10:21.913Z,20.57
2017-12-23T02:12:49.642Z,13.83
2017-12-23T02:15:17.335Z,17.57
2017-12-23T02:17:45.004Z,10.60
2017-12-23T02:20:12.671Z,24.77
2017-12-23T02:22:40.276Z,23.77
2017-12-23T02:25:07.898Z,14.23
2017-12-23T02:27:37.087Z,17.47
2017-12-23T02:30:04.748Z,26.87
2017-12-23T02:32:32.418Z,24.77
2017-12-23T02:35:00.904Z,24.97
2017-12-23T02:37:29.272Z,17.13
2017-12-23T02:39:56.871Z,17.10
2017-12-23T02:42:25.232Z,22.63
2017-12-23T02:44:53.607Z,27.90
2017-12-23T02:47:21.975Z,17.07
2017-12-23T02:49:51.170Z,26.90
2017-12-23T02:52:18.751Z,24.30
2017-12-23T02:54:47.217Z,29.33
2017-12-23T02:57:15.605Z,20.70
2017-12-23T02:59:43.207Z,28.00
2017-12-23T03:02:10.788Z,24.60
2017-12-23T03:04:38.393Z,30.03
2017-12-23T03:07:06.743Z,34.87
2017-12-23T03:09:34.360Z,30.13
2017-12-23T03:12:02.813Z,28.20
2017-12-23T03:14:31.183Z,26.93
2017-12-23T03:16:59.569Z,31.17
2017-12-23T03:19:27.924Z,30.37
2017-12-23T03:21:55.544Z,24.40
2017-12-23T03:24:23.126Z,17.03
2017-12-23T03:26:50.832Z,23.77
2017-12-23T03:29:18.411Z,25.83
2017-12-23T03:31:46.779Z,29.47
2017-12-23T03:34:15.147Z,27.73
2017-12-23T03:36:42.808Z,36.57
2017-12-23T03:39:10.397Z,20.67
2017-12-23T03:41:38.847Z,24.37
2017-12-23T03:44:06.512Z,22.93
2017-12-23T03:46:34.172Z,20.97
2017-12-23T03:49:01.841Z,26.50
2017-12-23T03:51:29.503Z,31.97
2017-12-23T03:53:57.872Z,23.80
2017-12-23T03:56:25.538Z,28.87
2017-12-23T03:58:53.149Z,25.80
2017-12-23T04:01:20.743Z,25.43
2017-12-23T04:03:48.424Z,24.70
2017-12-23T04:06:16.007Z,21.80
2017-12-23T04:08:44.375Z,21.90
2017-12-23T04:11:13.470Z,23.20
2017-12-23T04:13:41.943Z,26.00
2017-12-23T04:16:11.135Z,22.70
2017-12-23T04:18:38.745Z,27.73
2017-12-23T04:21:06.368Z,24.60
2017-12-23T04:23:34.844Z,18.83
2017-12-23T04:26:02.512Z,25.27
2017-12-23T04:28:31.600Z,24.83
2017-12-23T04:30:59.211Z,21.27
2017-12-23T04:33:26.814Z,21.30
2017-12-23T04:35:54.483Z,15.90
2017-12-23T04:38:22.147Z,19.60
2017-12-23T04:40:49.807Z,15.80
2017-12-23T04:43:17.391Z,27.43
2017-12-23T04:45:45.763Z,20.37
2017-12-23T04:48:14.116Z,25.63
2017-12-23T04:50:42.603Z,14.73
2017-12-23T04:53:10.189Z,18.53
2017-12-23T04:55:38.561Z,16.60
2017-12-23T04:58:06.906Z,16.47
2017-12-23T05:00:34.587Z,18.63
2017-12-23T05:03:02.168Z,24.80
2017-12-23T05:05:30.540Z,21.83
2017-12-23T05:07:59.008Z,21.00
2017-12-23T05:10:26.676Z,13.10
2017-12-23T05:12:55.047Z,28.40
2017-12-23T05:15:22.702Z,13.87
2017-12-23T05:17:50.303Z,21.50
2017-12-23T05:20:18.665Z,16.43
2017-12-23T05:22:47.039Z,17.93
2017-12-23T05:25:15.383Z,13.37
2017-12-23T05:27:43.072Z,16.43
2017-12-23T05:30:10.740Z,16.70
2017-12-23T05:32:39.216Z,18.40
2017-12-23T05:35:06.850Z,19.73
2017-12-23T05:37:34.539Z,18.97
2017-12-23T05:40:02.133Z,17.17
2017-12-23T05:42:30.520Z,12.93
2017-12-23T05:44:58.138Z,18.50
2017-12-23T05:47:25.799Z,13.10
2017-12-23T05:49:53.464Z,19.50
2017-12-23T05:52:21.045Z,21.30
2017-12-23T05:54:49.508Z,16.07
2017-12-23T05:57:17.096Z,23.37
2017-12-23T05:59:45.471Z,23.90
2017-12-23T06:02:13.927Z,22.00
2017-12-23T06:04:41.536Z,26.23
2017-12-23T06:07:09.123Z,16.93
2017-12-23T06:09:36.732Z,30.67
2017-12-23T06:12:05.190Z,20.23
2017-12-23T06:14:32.860Z,27.13
2017-12-23T06:17:00.519Z,30.93
2017-12-23T06:19:28.123Z,19.93
2017-12-23T06:21:55.703Z,25.77
2017-12-23T06:24:23.404Z,32.03
2017-12-23T06:26:50.987Z,20.10
2017-12-23T06:29:19.331Z,31.00
2017-12-23T06:31:46.936Z,28.80
2017-12-23T06:34:15.387Z,26.77
2017-12-23T06:36:42.991Z,31.20
2017-12-23T06:39:10.568Z,29.47
2017-12-23T06:41:38.175Z,29.17
2017-12-23T06:44:07.367Z,25.80
2017-12-23T06:46:34.971Z,26.63
2017-12-23T06:49:02.595Z,19.90
2017-12-23T06:51:30.256Z,23.80
2017-12-23T06:53:57.920Z,42.50
2017-12-23T06:56:25.583Z,33.50
2017-12-23T06:58:53.937Z,43.13
2017-12-23T07:01:21.524Z,37.00
2017-12-23T07:03:50.648Z,29.90
2017-12-23T07:06:18.999Z,24.33
2017-12-23T07:08:47.480Z,35.83
2017-12-23T07:11:15.148Z,27.07
2017-12-23T07:13:43.539Z,29.20
2017-12-23T07:16:11.891Z,25.53
2017-12-23T07:18:39.563Z,28.63
2017-12-23T07:21:07.209Z,30.07
2017-12-23T07:23:34.887Z,20.37
2017-12-23T07:26:02.551Z,30.50
2017-12-23T07:28:30.155Z,29.67
2017-12-23T07:30:57.739Z,21.33
2017-12-23T07:33:25.353Z,23.70
2017-12-23T07:35:53.711Z,23.60
2017-12-23T07:38:21.332Z,27.40
2017-12-23T07:40:49.011Z,27.13
2017-12-23T07:43:16.561Z,24.77
2017-12-23T07:45:44.166Z,20.27
2017-12-23T07:48:11.832Z,19.00
2017-12-23T07:50:40.307Z,18.17
2017-12-23T07:53:07.896Z,17.30
2017-12-23T07:55:36.268Z,14.70
2017-12-23T07:58:04.624Z,19.87
2017-12-23T08:00:33.935Z,17.97
2017-12-23T08:03:02.292Z,21.13
2017-12-23T08:05:29.903Z,22.10
2017-12-23T08:07:58.254Z,16.67
2017-12-23T08:10:25.916Z,15.60
2017-12-23T08:12:55.008Z,15.50
2017-12-23T08:15:22.688Z,18.13
2017-12-23T08:17:51.050Z,16.07
2017-12-23T08:20:18.632Z,19.10
2017-12-23T08:22:47.004Z,12.83
2017-12-23T08:25:14.588Z,15.93
2017-12-23T08:27:43.040Z,16.87
2017-12-23T08:30:11.388Z,9.27
2017-12-23T08:32:39.080Z,13.37
2017-12-23T08:35:07.455Z,13.33
2017-12-23T08:37:35.061Z,10.73
2017-12-23T08:40:02.645Z,12.27
2017-12-23T08:42:30.248Z,13.83
2017-12-23T08:44:59.445Z,10.10
2017-12-23T08:47:27.056Z,16.40
2017-12-23T08:49:54.660Z,9.70
2017-12-23T08:52:23.863Z,10.80
2017-12-23T08:54:52.203Z,8.87
2017-12-23T08:57:19.869Z,8.27
2017-12-23T08:59:47.568Z,8.00
2017-12-23T09:02:16.652Z,6.17
2017-12-23T09:04:44.260Z,6.80
2017-12-23T09:07:12.600Z,7.83
2017-12-23T09:09:41.791Z,6.83
2017-12-23T09:12:09.376Z,4.10
2017-12-23T09:14:36.971Z,5.40
2017-12-23T09:17:04.554Z,5.90
2017-12-23T09:19:32.247Z,4.77
2017-12-23T09:22:00.592Z,4.20
2017-12-23T09:24:28.288Z,3.50
2017-12-23T09:26:57.376Z,4.10
2017-12-23T09:29:25.051Z,5.10
2017-12-23T09:31:54.248Z,5.40
2017-12-23T09:34:21.847Z,4.13
2017-12-23T09:36:49.518Z,4.10
2017-12-23T09:39:17.951Z,5.10
2017-12-23T09:41:45.620Z,3.97
2017-12-23T09:44:13.204Z,3.13
2017-12-23T09:46:41.660Z,4.30
2017-12-23T09:49:09.320Z,5.03
2017-12-23T09:51:37.688Z,5.97
2017-12-23T09:54:05.329Z,5.53
2017-12-23T09:56:33.020Z,5.77
2017-12-23T09:59:00.697Z,3.23
2017-12-23T10:01:28.347Z,3.83
2017-12-23T10:03:55.919Z,4.27
2017-12-23T10:06:24.280Z,4.77
2017-12-23T10:08:51.962Z,4.37
2017-12-23T10:11:20.347Z,2.93
2017-12-23T10:13:48.004Z,3.57
2017-12-23T10:16:16.444Z,3.03
2017-12-23T10:18:44.144Z,2.83
2017-12-23T10:21:13.334Z,4.00
2017-12-23T10:23:40.935Z,2.17
2017-12-23T10:26:09.380Z,2.47
2017-12-23T10:28:37.042Z,2.70
2017-12-23T10:31:04.621Z,3.00
2017-12-23T10:33:32.215Z,2.33
2017-12-23T10:35:59.795Z,2.33
2017-12-23T10:38:27.560Z,3.67
2017-12-23T10:40:55.163Z,4.87
2017-12-23T10:43:22.758Z,3.40
2017-12-23T10:45:50.341Z,2.87
2017-12-23T10:48:18.039Z,2.23
2017-12-23T10:50:47.035Z,2.50
2017-12-23T10:53:16.130Z,4.80
2017-12-23T10:55:44.499Z,3.43
2017-12-23T10:58:12.176Z,3.10
2017-12-23T11:00:41.283Z,2.87
2017-12-23T11:03:08.931Z,3.70
2017-12-23T11:05:36.696Z,3.80
2017-12-23T11:08:05.790Z,3.70
2017-12-23T11:10:33.392Z,3.03
2017-12-23T11:13:01.830Z,2.90
2017-12-23T11:15:29.536Z,3.90
2017-12-23T11:17:57.868Z,3.80
2017-12-23T11:20:25.517Z,4.40
2017-12-23T11:22:53.203Z,4.83
2017-12-23T11:25:20.799Z,6.43
2017-12-23T11:27:49.139Z,4.03
2017-12-23T11:30:17.529Z,4.40
2017-12-23T11:32:45.186Z,8.37
2017-12-23T11:35:13.530Z,4.73
2017-12-23T11:37:41.123Z,4.80
2017-12-23T11:40:08.792Z,4.57
2017-12-23T11:42:37.161Z,8.20
2017-12-23T11:45:04.831Z,4.50
2017-12-23T11:47:33.200Z,6.30
2017-12-23T11:50:00.876Z,5.50
2017-12-23T11:52:29.985Z,6.87
2017-12-23T11:54:58.331Z,6.70
2017-12-23T11:57:25.932Z,5.47
2017-12-23T11:59:54.293Z,6.23
2017-12-23T12:02:22.667Z,6.57
2017-12-23T12:04:50.244Z,10.30
2017-12-23T12:07:18.707Z,6.83
2017-12-23T12:09:46.284Z,9.30
2017-12-23T12:12:13.941Z,6.20
2017-12-23T12:14:41.544Z,8.23
2017-12-23T12:17:09.128Z,8.03
2017-12-23T12:19:36.727Z,6.50
2017-12-23T12:22:04.374Z,6.60
2017-12-23T12:24:32.039Z,9.87
2017-12-23T12:26:59.619Z,8.37
2017-12-23T12:29:27.227Z,9.50
2017-12-23T12:31:54.828Z,4.53
2017-12-23T12:34:23.311Z,11.57
2017-12-23T12:36:50.976Z,10.03
2017-12-23T12:39:18.630Z,5.70
2017-12-23T12:41:46.304Z,9.57
2017-12-23T12:44:13.964Z,10.97
2017-12-23T12:46:41.624Z,8.57
2017-12-23T12:49:09.965Z,5.07
2017-12-23T12:51:37.595Z,12.23
2017-12-23T12:54:05.944Z,18.03
2017-12-23T12:56:33.544Z,9.40
2017-12-23T12:59:01.232Z,11.17
2017-12-23T13:01:28.933Z,9.43
2017-12-23T13:03:56.517Z,6.30
2017-12-23T13:06:24.876Z,6.50
2017-12-23T13:08:52.524Z,9.00
2017-12-23T13:11:21.011Z,11.50
2017-12-23T13:13:48.679Z,12.60
2017-12-23T13:16:16.277Z,13.00
2017-12-23T13:18:43.857Z,10.67
2017-12-23T13:21:11.461Z,10.00
2017-12-23T13:23:39.823Z,11.50
2017-12-23T13:26:07.499Z,14.67
2017-12-23T13:28:35.175Z,14.17
2017-12-23T13:31:02.832Z,14.03
2017-12-23T13:33:30.496Z,11.80
2017-12-23T13:35:58.151Z,14.77
2017-12-23T13:38:27.354Z,13.90
2017-12-23T13:40:55.016Z,17.50
2017-12-23T13:43:22.684Z,17.87
2017-12-23T13:45:50.267Z,15.63
2017-12-23T13:48:18.712Z,18.60
2017-12-23T13:50:46.375Z,16.30
2017-12-23T13:53:13.976Z,21.07
2017-12-23T13:55:42.331Z,22.23
2017-12-23T13:58:09.983Z,15.57
2017-12-23T14:00:39.184Z,24.00
2017-12-23T14:03:06.831Z,23.93
2017-12-23T14:05:34.412Z,20.40
2017-12-23T14:08:01.995Z,23.63
2017-12-23T14:10:30.371Z,26.43
2017-12-23T14:12:58.729Z,24.40
2017-12-23T14:15:26.345Z,23.43
2017-12-23T14:17:53.947Z,25.07
2017-12-23T14:20:22.324Z,20.67
2017-12-23T14:22:49.914Z,12.37
2017-12-23T14:25:18.383Z,17.33
2017-12-23T14:27:45.968Z,17.43
2017-12-23T14:30:13.575Z,17.60
2017-12-23T14:32:41.176Z,18.13
2017-12-23T14:35:09.635Z,17.83
2017-12-23T14:37:37.982Z,25.20
2017-12-23T14:40:06.695Z,23.80
2017-12-23T14:42:34.372Z,20.60
2017-12-23T14:45:02.028Z,26.03
2017-12-23T14:47:29.706Z,26.60
2017-12-23T14:49:58.060Z,26.33
2017-12-23T14:52:25.732Z,20.67
2017-12-23T14:54:54.117Z,20.27
2017-12-23T14:57:22.501Z,21.27
2017-12-23T14:59:50.083Z,25.60
2017-12-23T15:02:18.465Z,18.50
2017-12-23T15:04:46.096Z,23.93
2017-12-23T15:07:13.755Z,28.23
2017-12-23T15:09:42.848Z,14.87
2017-12-23T15:12:11.340Z,40.67
2017-12-23T15:14:40.432Z,23.63
2017-12-23T15:17:08.044Z,22.47
2017-12-23T15:19:35.656Z,25.37
2017-12-23T15:22:03.279Z,18.03
2017-12-23T15:24:30.984Z,27.07
2017-12-23T15:26:58.646Z,24.77
2017-12-23T15:29:27.049Z,23.60
2017-12-23T15:31:55.559Z,20.87
2017-12-23T15:34:23.267Z,22.73
2017-12-23T15:36:50.852Z,22.37
2017-12-23T15:39:19.228Z,27.13
2017-12-23T15:41:47.580Z,26.10
2017-12-23T15:44:15.196Z,22.63
2017-12-23T15:46:42.811Z,23.07
2017-12-23T15:49:10.425Z,27.00
2017-12-23T15:51:38.100Z,18.70
2017-12-23T15:54:05.801Z,15.10
2017-12-23T15:56:33.461Z,21.90
2017-12-23T15:59:01.088Z,124.73
2017-12-23T16:01:28.853Z,117.97
2017-12-23T16:03:56.435Z,19.80
2017-12-23T16:06:24.112Z,17.80
2017-12-23T16:08:51.774Z,19.20
2017-12-23T16:11:19.435Z,16.10
2017-12-23T16:13:48.632Z,14.37
2017-12-23T16:16:16.239Z,20.80
2017-12-23T16:18:43.829Z,18.27
2017-12-23T16:21:11.521Z,16.13
2017-12-23T16:23:40.719Z,24.93
2017-12-23T16:26:09.092Z,13.03
2017-12-23T16:28:36.688Z,18.30
2017-12-23T16:31:05.059Z,19.80
2017-12-23T16:33:33.407Z,17.53
2017-12-23T16:36:01.015Z,19.97
2017-12-23T16:38:29.367Z,20.00
2017-12-23T16:40:57.760Z,20.47
2017-12-23T16:43:26.108Z,15.17
2017-12-23T16:45:53.780Z,20.37
2017-12-23T16:48:21.444Z,21.83
2017-12-23T16:50:49.112Z,14.10
2017-12-23T16:53:16.719Z,18.30
2017-12-23T16:55:44.312Z,15.33
2017-12-23T16:58:11.992Z,17.33
2017-12-23T17:00:39.576Z,14.40
2017-12-23T17:03:07.946Z,11.73
2017-12-23T17:05:36.304Z,18.30
2017-12-23T17:08:03.908Z,11.37
2017-12-23T17:10:32.361Z,15.07
2017-12-23T17:13:00.026Z,15.13
2017-12-23T17:15:27.680Z,13.80
2017-12-23T17:17:55.305Z,10.70
2017-12-23T17:20:22.903Z,11.63
2017-12-23T17:22:51.352Z,12.67
2017-12-23T17:25:19.053Z,13.13
2017-12-23T17:27:47.427Z,10.87
2017-12-23T17:30:34.401Z,12.50
2017-12-23T17:33:02.004Z,17.13
2017-12-23T17:35:29.608Z,13.00
2017-12-23T17:37:57.227Z,20.87
2017-12-23T17:40:24.836Z,12.33
2017-12-23T17:42:52.429Z,14.20
2017-12-23T17:45:20.111Z,15.13
2017-12-23T17:47:49.199Z,15.30
2017-12-23T17:50:16.878Z,17.90
2017-12-23T17:52:44.464Z,12.10
2017-12-23T17:55:12.855Z,17.83
2017-12-23T17:57:40.443Z,22.10
2017-12-23T18:00:08.028Z,26.70
2017-12-23T18:02:35.700Z,18.43
2017-12-23T18:05:03.323Z,18.40
2017-12-23T18:07:30.927Z,16.63
2017-12-23T18:09:58.519Z,17.60
2017-12-23T18:12:26.148Z,19.83
2017-12-23T18:14:53.804Z,18.07
2017-12-23T18:17:22.920Z,14.70
2017-12-23T18:19:51.396Z,23.90
2017-12-23T18:22:19.872Z,27.83
2017-12-23T18:24:47.531Z,13.63
2017-12-23T18:27:15.191Z,15.30
2017-12-23T18:29:42.776Z,12.73
2017-12-23T18:32:11.195Z,18.70
2017-12-23T18:34:38.799Z,18.90
2017-12-23T18:37:06.419Z,14.57
2017-12-23T18:39:33.999Z,17.60
2017-12-23T18:42:01.592Z,16.97
2017-12-23T18:44:29.239Z,17.80
2017-12-23T18:46:56.899Z,15.87
2017-12-23T18:49:24.568Z,19.07
2017-12-23T18:51:52.152Z,14.63
2017-12-23T18:54:20.519Z,14.13
2017-12-23T18:56:48.881Z,16.00
2017-12-23T18:59:16.551Z,18.60
2017-12-23T19:01:44.216Z,12.70
2017-12-23T19:04:11.871Z,15.07
2017-12-23T19:06:39.548Z,15.73
2017-12-23T19:09:07.210Z,15.70
2017-12-23T19:11:35.573Z,11.60
2017-12-23T19:14:03.239Z,11.13
2017-12-23T19:16:42.591Z,12.73
2017-12-23T19:19:10.238Z,14.37
2017-12-23T19:21:37.827Z,18.20
2017-12-23T19:24:06.197Z,18.10
2017-12-23T19:26:34.548Z,14.70
2017-12-23T19:29:02.150Z,11.57
2017-12-23T19:31:30.599Z,8.73
2017-12-23T19:33:58.215Z,15.90
2017-12-23T19:36:26.153Z,13.10
2017-12-23T19:38:54.615Z,14.07
2017-12-23T19:41:22.276Z,14.00
2017-12-23T19:43:49.860Z,17.60
2017-12-23T19:46:18.248Z,12.30
2017-12-23T19:48:46.673Z,20.70
2017-12-23T19:51:14.289Z,15.40
2017-12-23T19:53:42.647Z,11.00
2017-12-23T19:56:10.299Z,10.03
2017-12-23T19:58:38.783Z,12.97
2017-12-23T20:01:06.444Z,13.60
2017-12-23T20:03:34.032Z,16.70
2017-12-23T20:06:02.403Z,14.50
2017-12-23T20:08:30.751Z,13.40
2017-12-23T20:10:58.362Z,9.57
2017-12-23T20:13:26.708Z,9.03
2017-12-23T20:15:54.367Z,9.57
2017-12-23T20:18:21.958Z,11.93
2017-12-23T20:20:50.311Z,12.40
2017-12-23T20:23:19.508Z,10.10
2017-12-23T20:25:47.091Z,10.03
2017-12-23T20:28:15.559Z,14.93
2017-12-23T20:30:43.908Z,12.57
2017-12-23T20:33:11.512Z,12.23
2017-12-23T20:35:39.862Z,10.10
2017-12-23T20:38:07.458Z,9.57
2017-12-23T20:40:35.824Z,13.90
2017-12-23T20:43:04.288Z,10.00
2017-12-23T20:45:31.961Z,11.63
2017-12-23T20:47:59.578Z,14.37
2017-12-23T20:50:27.175Z,18.03
2017-12-23T20:52:54.845Z,11.77
2017-12-23T20:55:22.457Z,12.23
2017-12-23T20:57:50.041Z,7.90
2017-12-23T21:00:17.648Z,11.20
2017-12-23T21:02:45.999Z,12.40
2017-12-23T21:05:13.668Z,10.53
2017-12-23T21:07:41.243Z,8.10
2017-12-23T21:10:09.607Z,10.03
2017-12-23T21:12:37.184Z,9.60
2017-12-23T21:15:05.546Z,12.30
2017-12-23T21:17:33.131Z,12.10
2017-12-23T21:20:01.509Z,10.23
2017-12-23T21:22:29.884Z,14.97
2017-12-23T21:24:58.349Z,9.43
2017-12-23T21:27:26.009Z,13.97
2017-12-23T21:29:53.621Z,9.70
2017-12-23T21:32:21.231Z,9.40
2017-12-23T21:34:50.343Z,8.80
2017-12-23T21:37:18.696Z,10.90
2017-12-23T21:39:46.304Z,7.87
2017-12-23T21:42:13.923Z,8.03
2017-12-23T21:44:41.548Z,14.87
2017-12-23T21:47:09.163Z,8.70
2017-12-23T21:49:36.743Z,10.53
2017-12-23T21:52:05.103Z,7.27
2017-12-23T21:54:32.684Z,12.60
2017-12-23T21:57:01.061Z,8.63
2017-12-23T21:59:29.417Z,13.73
2017-12-23T22:01:57.149Z,9.60
2017-12-23T22:04:24.831Z,9.80
2017-12-23T22:06:52.438Z,10.90
2017-12-23T22:09:20.029Z,10.93
2017-12-23T22:11:47.639Z,9.77
2017-12-23T22:14:15.996Z,16.73
2017-12-23T22:16:43.673Z,11.07
2017-12-23T22:19:12.780Z,11.37
2017-12-23T22:21:41.243Z,18.53
2017-12-23T22:24:08.912Z,16.50
2017-12-23T22:26:37.293Z,12.43
2017-12-23T22:29:05.673Z,19.60
2017-12-23T22:31:33.265Z,10.57
2017-12-23T22:34:00.876Z,11.70
2017-12-23T22:36:28.465Z,8.73
2017-12-23T22:38:56.936Z,10.77
2017-12-23T22:41:24.592Z,16.53
2017-12-23T22:43:52.320Z,13.00
2017-12-23T22:46:19.984Z,12.03
2017-12-23T22:48:47.602Z,20.33
2017-12-23T22:51:16.064Z,13.53
2017-12-23T22:53:43.732Z,13.83
2017-12-23T22:56:11.319Z,14.67
2017-12-23T22:58:38.949Z,12.80
2017-12-23T23:01:06.610Z,17.27
2017-12-23T23:03:34.226Z,18.37
2017-12-23T23:06:01.816Z,14.67
2017-12-23T23:08:29.407Z,15.30
2017-12-23T23:10:57.123Z,12.30
2017-12-23T23:13:24.712Z,18.30
2017-12-23T23:15:52.383Z,19.30
2017-12-23T23:18:19.973Z,17.90
2017-12-23T23:20:48.354Z,15.07
2017-12-23T23:23:16.708Z,15.87
2017-12-23T23:25:44.320Z,13.63
2017-12-23T23:28:11.927Z,17.80
2017-12-23T23:30:39.655Z,18.73
2017-12-23T23:33:07.358Z,18.40
2017-12-23T23:35:35.024Z,18.13
2017-12-23T23:38:02.685Z,22.23
2017-12-23T23:40:30.283Z,17.83
2017-12-23T23:42:58.008Z,15.00
2017-12-23T23:45:25.592Z,10.63
2017-12-23T23:47:54.048Z,15.80
2017-12-23T23:50:21.704Z,11.00
2017-12-23T23:52:49.320Z,11.17
2017-12-23T23:55:16.935Z,12.10
2017-12-23T23:57:44.595Z,11.80
